Time;durP1;ratioP1;P1;durP2;ratioP2;P2;SDS_P1;SDS_P2;PMS_P1;PMS_P2;Temp;Humidity;BMP_temperature;BMP_pressure;BME280_temperature;BME280_humidity;BME280_pressure;Samples;Min_cycle;Max_cycle;Signal;HPM_P1;HPM_P2
2024/01/19 00:01:44;;;;;;;3.57;3.27;;;;;;;;;;5091620;28;20201;-79
2024/01/19 00:04:15;;;;;;;4.83;4.03;;;;;;;;;;5091074;28;20269;-79
2024/01/19 00:06:41;;;;;;;4.27;3.20;;;;;;;;;;5090989;28;21111;-79
2024/01/19 00:09:08;;;;;;;4.83;3.50;;;;;;;;;;5088772;28;20204;-79
2024/01/19 00:11:36;;;;;;;4.33;3.93;;;;;;;;;;5090903;28;20282;-78
2024/01/19 00:14:02;;;;;;;5.63;2.90;;;;;;;;;;5090322;28;20212;-79
2024/01/19 00:16:29;;;;;;;4.47;3.63;;;;;;;;;;5090790;28;20234;-79
2024/01/19 00:18:57;;;;;;;4.50;3.33;;;;;;;;;;5090708;28;20204;-79
2024/01/19 00:21:25;;;;;;;2.90;2.70;;;;;;;;;;5077587;28;20644;-79
2024/01/19 00:23:55;;;;;;;2.80;2.60;;;;;;;;;;5091060;28;20227;-81
2024/01/19 00:26:22;;;;;;;3.13;2.83;;;;;;;;;;5091062;28;20699;-79
2024/01/19 00:28:50;;;;;;;2.63;2.30;;;;;;;;;;5090593;28;20622;-79
2024/01/19 00:31:17;;;;;;;2.33;2.17;;;;;;;;;;5090789;28;20211;-79
2024/01/19 00:33:44;;;;;;;3.17;2.27;;;;;;;;;;5090866;28;20211;-79
2024/01/19 00:36:10;;;;;;;2.20;2.00;;;;;;;;;;5090618;28;20245;-79
2024/01/19 00:38:39;;;;;;;2.27;2.07;;;;;;;;;;5090682;28;20192;-79
2024/01/19 00:41:05;;;;;;;1.80;1.50;;;;;;;;;;5091124;28;20207;-79
2024/01/19 00:43:32;;;;;;;2.33;2.13;;;;;;;;;;5090582;28;20200;-79
2024/01/19 00:45:59;;;;;;;1.57;1.47;;;;;;;;;;5090920;28;20295;-79
2024/01/19 00:48:26;;;;;;;1.90;1.80;;;;;;;;;;5090254;28;20209;-79
2024/01/19 00:50:53;;;;;;;2.13;1.93;;;;;;;;;;5090796;28;20208;-80
2024/01/19 00:53:20;;;;;;;2.47;2.23;;;;;;;;;;5090767;28;20204;-79
2024/01/19 00:55:48;;;;;;;4.37;2.67;;;;;;;;;;5090568;28;20242;-79
2024/01/19 00:58:16;;;;;;;2.57;1.57;;;;;;;;;;5090290;28;20631;-79
2024/01/19 01:00:43;;;;;;;2.53;2.27;;;;;;;;;;5090839;28;20204;-79
2024/01/19 01:03:10;;;;;;;2.27;1.97;;;;;;;;;;5090036;28;20204;-79
2024/01/19 01:05:36;;;;;;;3.03;2.17;;;;;;;;;;5090823;28;20653;-79
2024/01/19 01:08:04;;;;;;;2.20;2.03;;;;;;;;;;5090591;28;20196;-79
2024/01/19 01:10:33;;;;;;;2.50;2.30;;;;;;;;;;5091009;28;20204;-78
2024/01/19 01:13:02;;;;;;;2.13;1.90;;;;;;;;;;5090605;28;20228;-79
2024/01/19 01:15:29;;;;;;;2.40;2.20;;;;;;;;;;5090725;28;20208;-79
2024/01/19 01:17:56;;;;;;;4.97;2.33;;;;;;;;;;5090007;28;20208;-79
2024/01/19 01:20:22;;;;;;;2.93;2.57;;;;;;;;;;5090914;28;20213;-79
2024/01/19 01:22:49;;;;;;;3.17;2.60;;;;;;;;;;5089980;28;20207;-79
2024/01/19 01:25:16;;;;;;;2.77;2.57;;;;;;;;;;5092731;28;20212;-79
2024/01/19 01:27:43;;;;;;;3.00;2.70;;;;;;;;;;5093536;28;20261;-79
2024/01/19 01:30:11;;;;;;;2.83;2.63;;;;;;;;;;5094209;28;20693;-79
2024/01/19 01:32:38;;;;;;;3.23;2.80;;;;;;;;;;5094238;28;20200;-79
2024/01/19 01:35:05;;;;;;;5.00;3.90;;;;;;;;;;5094301;28;20253;-79
2024/01/19 01:37:32;;;;;;;3.83;3.47;;;;;;;;;;5093868;28;20281;-79
2024/01/19 01:39:59;;;;;;;3.77;3.13;;;;;;;;;;5094038;28;20265;-79
2024/01/19 01:42:26;;;;;;;3.47;3.17;;;;;;;;;;5093713;28;20201;-79
2024/01/19 01:44:55;;;;;;;3.30;3.10;;;;;;;;;;5094278;28;20212;-79
2024/01/19 01:47:23;;;;;;;3.43;3.13;;;;;;;;;;5080467;28;20208;-80
2024/01/19 01:49:50;;;;;;;3.77;3.43;;;;;;;;;;5093866;28;20207;-80
2024/01/19 01:52:18;;;;;;;3.63;3.07;;;;;;;;;;5094365;28;20636;-80
2024/01/19 01:54:45;;;;;;;3.33;3.07;;;;;;;;;;5093639;28;20228;-80
2024/01/19 01:57:12;;;;;;;4.43;3.27;;;;;;;;;;5093495;28;20223;-80
2024/01/19 01:59:38;;;;;;;3.70;3.40;;;;;;;;;;5093625;28;20638;-80
2024/01/19 02:02:05;;;;;;;3.40;2.80;;;;;;;;;;5093559;28;20270;-80
2024/01/19 02:04:33;;;;;;;3.57;3.23;;;;;;;;;;5093030;28;20212;-80
2024/01/19 02:07:01;;;;;;;3.17;2.87;;;;;;;;;;5093155;28;20663;-80
2024/01/19 02:09:27;;;;;;;3.00;2.80;;;;;;;;;;5093296;28;20816;-80
2024/01/19 02:11:55;;;;;;;3.40;3.10;;;;;;;;;;5093571;28;20203;-80
2024/01/19 02:14:21;;;;;;;3.33;3.03;;;;;;;;;;5093329;28;20211;-79
2024/01/19 02:16:48;;;;;;;2.93;2.70;;;;;;;;;;5093032;28;20701;-79
2024/01/19 02:19:15;;;;;;;3.00;2.50;;;;;;;;;;5093155;28;20230;-79
2024/01/19 02:21:43;;;;;;;3.00;2.70;;;;;;;;;;5093346;28;20207;-79
2024/01/19 02:24:14;;;;;;;3.10;2.80;;;;;;;;;;5092804;28;20208;-79
2024/01/19 02:26:41;;;;;;;3.47;2.47;;;;;;;;;;5092825;28;20197;-79
2024/01/19 02:29:08;;;;;;;3.13;2.50;;;;;;;;;;5092966;28;20263;-79
2024/01/19 02:31:35;;;;;;;2.73;2.27;;;;;;;;;;5093515;28;20208;-79
2024/01/19 02:34:01;;;;;;;2.60;2.40;;;;;;;;;;5092412;28;20200;-79
2024/01/19 02:36:28;;;;;;;2.57;2.37;;;;;;;;;;5092604;28;20228;-79
2024/01/19 02:38:55;;;;;;;2.60;2.40;;;;;;;;;;5092812;28;20204;-79
2024/01/19 02:41:23;;;;;;;2.40;2.20;;;;;;;;;;5091436;28;20196;-80
2024/01/19 02:43:50;;;;;;;2.60;2.40;;;;;;;;;;5089130;28;20216;-78
2024/01/19 02:46:19;;;;;;;3.23;2.97;;;;;;;;;;5092648;28;20515;-78
2024/01/19 02:48:45;;;;;;;2.90;2.70;;;;;;;;;;5092365;28;20196;-77
2024/01/19 02:51:12;;;;;;;2.57;2.37;;;;;;;;;;5092510;28;20196;-77
2024/01/19 02:53:39;;;;;;;2.77;2.57;;;;;;;;;;5092232;28;20626;-78
2024/01/19 02:56:06;;;;;;;2.77;2.50;;;;;;;;;;5091989;28;20210;-77
2024/01/19 02:58:35;;;;;;;2.93;2.50;;;;;;;;;;5092307;28;20622;-78
2024/01/19 03:01:02;;;;;;;2.83;2.20;;;;;;;;;;5092529;28;20201;-79
2024/01/19 03:03:29;;;;;;;2.80;2.60;;;;;;;;;;5091949;28;20200;-78
2024/01/19 03:05:55;;;;;;;3.00;2.70;;;;;;;;;;5092527;28;20217;-79
2024/01/19 03:08:22;;;;;;;2.63;2.10;;;;;;;;;;5091470;28;20196;-79
2024/01/19 03:10:49;;;;;;;4.10;3.03;;;;;;;;;;5092100;28;20291;-77
2024/01/19 03:13:16;;;;;;;2.87;2.50;;;;;;;;;;5091824;28;20201;-77
2024/01/19 03:15:45;;;;;;;3.30;2.97;;;;;;;;;;5091881;28;20693;-78
2024/01/19 03:18:13;;;;;;;4.37;3.80;;;;;;;;;;5091382;28;20228;-79
2024/01/19 03:20:39;;;;;;;3.57;2.70;;;;;;;;;;5091752;28;20291;-78
2024/01/19 03:23:07;;;;;;;3.13;2.30;;;;;;;;;;5092051;28;20196;-77
2024/01/19 03:25:34;;;;;;;2.40;2.10;;;;;;;;;;5092035;28;20207;-78
2024/01/19 03:28:01;;;;;;;3.20;2.50;;;;;;;;;;5090898;28;20216;-77
2024/01/19 03:30:27;;;;;;;1.50;1.40;;;;;;;;;;5091853;28;20200;-77
2024/01/19 03:32:56;;;;;;;2.17;1.60;;;;;;;;;;5092022;28;20204;-79
2024/01/19 03:35:22;;;;;;;1.67;1.57;;;;;;;;;;5091724;28;20207;-79
2024/01/19 03:37:49;;;;;;;2.97;1.90;;;;;;;;;;5091564;28;20222;-79
2024/01/19 03:40:16;;;;;;;6.77;3.47;;;;;;;;;;5091146;28;20204;-79
2024/01/19 03:42:43;;;;;;;4.07;3.33;;;;;;;;;;5091431;28;20230;-79
2024/01/19 03:45:10;;;;;;;2.67;2.40;;;;;;;;;;5091219;28;20207;-78
2024/01/19 03:47:36;;;;;;;3.20;2.90;;;;;;;;;;5090801;28;20196;-79
2024/01/19 03:50:08;;;;;;;4.50;3.60;;;;;;;;;;5090793;28;20215;-79
2024/01/19 03:52:34;;;;;;;5.40;4.90;;;;;;;;;;5091650;28;20205;-79
2024/01/19 03:55:01;;;;;;;4.43;4.13;;;;;;;;;;5091079;28;20201;-79
2024/01/19 03:57:28;;;;;;;4.70;4.30;;;;;;;;;;5090710;28;20765;-79
2024/01/19 03:59:55;;;;;;;5.60;3.00;;;;;;;;;;5091281;28;20222;-79
2024/01/19 04:02:21;;;;;;;3.63;2.93;;;;;;;;;;5090749;28;20200;-79
2024/01/19 04:04:49;;;;;;;3.63;3.33;;;;;;;;;;5090173;28;20204;-79
2024/01/19 04:07:17;;;;;;;3.53;3.23;;;;;;;;;;5091111;28;20732;-79
2024/01/19 04:09:44;;;;;;;3.13;2.57;;;;;;;;;;5090709;28;20197;-79
2024/01/19 04:12:13;;;;;;;2.83;2.50;;;;;;;;;;5081127;28;20203;-79
2024/01/19 04:14:41;;;;;;;3.93;3.63;;;;;;;;;;5090399;28;20203;-79
2024/01/19 04:17:08;;;;;;;6.33;3.53;;;;;;;;;;5091213;28;20220;-79
2024/01/19 04:19:34;;;;;;;3.77;3.47;;;;;;;;;;5088479;28;20204;-78
2024/01/19 04:22:01;;;;;;;4.17;3.50;;;;;;;;;;5090837;28;20204;-78
2024/01/19 04:24:29;;;;;;;4.07;3.77;;;;;;;;;;5090310;28;20215;-78
2024/01/19 04:26:56;;;;;;;4.07;3.77;;;;;;;;;;5090744;28;20204;-78
2024/01/19 04:29:25;;;;;;;3.50;3.20;;;;;;;;;;5090647;28;20226;-76
2024/01/19 04:31:53;;;;;;;4.57;4.17;;;;;;;;;;5091277;28;20747;-77
2024/01/19 04:34:20;;;;;;;3.73;2.90;;;;;;;;;;5090387;28;20212;-78
2024/01/19 04:36:48;;;;;;;4.10;3.40;;;;;;;;;;5090830;28;20310;-78
2024/01/19 04:39:16;;;;;;;3.33;3.03;;;;;;;;;;5090461;28;20219;-77
2024/01/19 04:41:44;;;;;;;3.10;2.90;;;;;;;;;;5090867;28;20598;-77
2024/01/19 04:44:14;;;;;;;3.03;2.83;;;;;;;;;;5090861;28;20208;-78
2024/01/19 04:46:40;;;;;;;3.53;3.23;;;;;;;;;;5090784;28;20650;-78
2024/01/19 04:49:07;;;;;;;4.20;3.80;;;;;;;;;;5090623;28;20220;-78
2024/01/19 04:51:34;;;;;;;6.10;3.80;;;;;;;;;;5090601;28;20208;-78
2024/01/19 04:54:01;;;;;;;4.10;3.20;;;;;;;;;;5088279;28;20582;-78
2024/01/19 04:56:27;;;;;;;4.90;3.73;;;;;;;;;;5089352;28;20200;-78
2024/01/19 04:58:55;;;;;;;3.30;3.00;;;;;;;;;;5089543;28;20224;-78
2024/01/19 05:01:22;;;;;;;3.70;3.40;;;;;;;;;;5093694;28;20204;-79
2024/01/19 05:03:49;;;;;;;3.87;3.57;;;;;;;;;;5092455;28;20197;-76
2024/01/19 05:06:16;;;;;;;4.47;4.07;;;;;;;;;;5094334;28;20287;-77
2024/01/19 05:08:43;;;;;;;5.00;4.50;;;;;;;;;;5089849;28;20210;-77
2024/01/19 05:11:13;;;;;;;5.20;4.70;;;;;;;;;;5085723;28;20203;-77
2024/01/19 05:13:40;;;;;;;5.93;5.43;;;;;;;;;;5093939;28;20204;-77
2024/01/19 05:16:09;;;;;;;6.10;5.40;;;;;;;;;;5094584;28;20196;-77
2024/01/19 05:18:35;;;;;;;5.73;5.23;;;;;;;;;;5094583;28;20314;-77
2024/01/19 05:21:03;;;;;;;4.70;4.30;;;;;;;;;;5094091;28;20651;-77
2024/01/19 05:23:31;;;;;;;4.17;3.87;;;;;;;;;;5094763;28;20283;-77
2024/01/19 05:25:57;;;;;;;5.30;4.90;;;;;;;;;;5094253;28;20204;-77
2024/01/19 05:28:25;;;;;;;6.17;5.57;;;;;;;;;;5094139;28;20224;-77
2024/01/19 05:30:53;;;;;;;4.40;4.00;;;;;;;;;;5094067;28;20208;-77
2024/01/19 05:33:22;;;;;;;3.67;3.37;;;;;;;;;;5094065;28;20200;-78
2024/01/19 05:35:49;;;;;;;3.20;3.00;;;;;;;;;;5094070;28;20204;-77
2024/01/19 05:38:15;;;;;;;2.90;2.70;;;;;;;;;;5093638;28;20232;-78
2024/01/19 05:40:42;;;;;;;6.37;4.17;;;;;;;;;;5094366;28;20196;-77
2024/01/19 05:43:09;;;;;;;3.50;2.20;;;;;;;;;;5093924;28;20200;-77
2024/01/19 05:45:36;;;;;;;2.77;2.57;;;;;;;;;;5094026;28;20201;-77
2024/01/19 05:48:03;;;;;;;5.00;4.30;;;;;;;;;;5093361;28;20199;-77
2024/01/19 05:50:31;;;;;;;4.20;3.80;;;;;;;;;;5094040;28;20201;-77
2024/01/19 05:52:58;;;;;;;4.03;3.60;;;;;;;;;;5079873;28;20232;-77
2024/01/19 05:55:26;;;;;;;2.97;2.77;;;;;;;;;;5093701;28;20257;-78
2024/01/19 05:57:53;;;;;;;2.93;2.73;;;;;;;;;;5092255;28;20231;-78
2024/01/19 06:00:20;;;;;;;2.77;2.53;;;;;;;;;;5091080;28;20196;-78
2024/01/19 06:02:47;;;;;;;2.50;2.30;;;;;;;;;;5092651;28;20209;-77
2024/01/19 06:05:15;;;;;;;3.53;2.80;;;;;;;;;;5092941;28;20612;-77
2024/01/19 06:07:43;;;;;;;4.30;3.47;;;;;;;;;;5092727;28;20212;-79
2024/01/19 06:10:11;;;;;;;5.20;4.67;;;;;;;;;;5093319;28;20604;-77
2024/01/19 06:12:37;;;;;;;6.10;5.50;;;;;;;;;;5091972;28;20196;-77
2024/01/19 06:15:06;;;;;;;7.73;6.93;;;;;;;;;;5092694;28;20196;-77
2024/01/19 06:17:33;;;;;;;7.00;6.37;;;;;;;;;;5092176;28;20227;-78
2024/01/19 06:20:00;;;;;;;6.93;6.27;;;;;;;;;;5092649;28;20189;-77
2024/01/19 06:22:27;;;;;;;6.27;5.67;;;;;;;;;;5092333;28;20582;-77
2024/01/19 06:24:58;;;;;;;5.80;5.20;;;;;;;;;;5092855;28;20584;-77
2024/01/19 06:27:24;;;;;;;5.63;5.13;;;;;;;;;;5092563;28;20242;-77
2024/01/19 06:29:54;;;;;;;3.50;3.23;;;;;;;;;;5093225;28;20231;-78
2024/01/19 06:32:21;;;;;;;2.73;2.50;;;;;;;;;;5092890;28;20741;-78
2024/01/19 06:34:48;;;;;;;2.97;2.40;;;;;;;;;;5092691;28;20776;-77
2024/01/19 06:37:15;;;;;;;2.00;1.80;;;;;;;;;;5093104;28;20196;-78
2024/01/19 06:39:42;;;;;;;3.27;2.03;;;;;;;;;;5092891;28;20204;-77
2024/01/19 06:42:10;;;;;;;1.63;1.53;;;;;;;;;;5093058;28;20615;-78
2024/01/19 06:44:36;;;;;;;2.23;2.03;;;;;;;;;;5092519;28;20682;-77
2024/01/19 06:47:04;;;;;;;2.40;2.20;;;;;;;;;;5092467;28;20203;-77
2024/01/19 06:49:31;;;;;;;3.00;2.70;;;;;;;;;;5093063;28;20200;-77
2024/01/19 06:51:59;;;;;;;4.57;3.00;;;;;;;;;;5092606;28;20560;-77
2024/01/19 06:54:26;;;;;;;3.20;2.27;;;;;;;;;;5092433;28;20208;-77
2024/01/19 06:56:52;;;;;;;3.37;1.93;;;;;;;;;;5092387;28;20211;-77
2024/01/19 06:59:21;;;;;;;3.23;2.53;;;;;;;;;;5092445;28;20230;-77
2024/01/19 07:01:48;;;;;;;1.80;1.60;;;;;;;;;;5092093;28;20197;-77
2024/01/19 07:04:14;;;;;;;2.90;1.80;;;;;;;;;;5092378;28;20751;-77
2024/01/19 07:06:41;;;;;;;2.60;2.40;;;;;;;;;;5092684;28;20621;-77
2024/01/19 07:09:08;;;;;;;3.73;3.30;;;;;;;;;;5092252;28;20211;-77
2024/01/19 07:11:36;;;;;;;2.50;2.30;;;;;;;;;;5092786;28;20265;-77
2024/01/19 07:14:03;;;;;;;6.47;3.40;;;;;;;;;;5092721;28;20201;-77
2024/01/19 07:16:31;;;;;;;5.53;3.30;;;;;;;;;;5092315;28;20204;-77
2024/01/19 07:18:58;;;;;;;2.60;2.40;;;;;;;;;;5091556;28;20228;-77
2024/01/19 07:21:24;;;;;;;1.63;1.53;;;;;;;;;;5092596;28;20230;-77
2024/01/19 07:23:51;;;;;;;1.83;1.63;;;;;;;;;;5091381;28;20196;-77
2024/01/19 07:26:19;;;;;;;2.93;2.50;;;;;;;;;;5078646;28;20208;-77
2024/01/19 07:28:46;;;;;;;3.77;1.70;;;;;;;;;;5091746;28;20255;-77
2024/01/19 07:31:13;;;;;;;1.67;1.57;;;;;;;;;;5091895;28;20211;-77
2024/01/19 07:33:41;;;;;;;2.13;1.50;;;;;;;;;;5091487;28;20202;-77
2024/01/19 07:36:08;;;;;;;4.13;2.13;;;;;;;;;;5091726;28;20201;-77
2024/01/19 07:38:37;;;;;;;2.13;2.00;;;;;;;;;;5091492;28;20224;-79
2024/01/19 07:41:06;;;;;;;2.30;1.83;;;;;;;;;;5091967;28;20274;-77
2024/01/19 07:43:33;;;;;;;4.63;2.53;;;;;;;;;;5091757;28;20204;-77
2024/01/19 07:45:59;;;;;;;3.63;3.33;;;;;;;;;;5091438;28;20675;-77
2024/01/19 07:48:26;;;;;;;4.80;4.40;;;;;;;;;;5091239;28;20215;-77
2024/01/19 07:50:54;;;;;;;3.43;3.13;;;;;;;;;;5091701;28;20204;-77
2024/01/19 07:53:21;;;;;;;3.67;3.37;;;;;;;;;;5091565;28;20201;-77
2024/01/19 07:55:48;;;;;;;5.50;5.00;;;;;;;;;;5091412;28;20212;-77
2024/01/19 07:58:15;;;;;;;5.90;4.10;;;;;;;;;;5090925;28;20220;-77
2024/01/19 08:00:42;;;;;;;4.50;4.10;;;;;;;;;;5091738;28;20212;-77
2024/01/19 08:03:09;;;;;;;5.10;4.27;;;;;;;;;;5091026;28;20212;-77
2024/01/19 08:05:36;;;;;;;6.90;3.63;;;;;;;;;;5091711;28;20265;-77
2024/01/19 08:08:06;;;;;;;3.30;2.00;;;;;;;;;;5091056;28;20212;-77
2024/01/19 08:10:35;;;;;;;3.03;2.40;;;;;;;;;;5090958;28;20199;-77
2024/01/19 08:13:01;;;;;;;2.57;2.37;;;;;;;;;;5090860;28;20200;-77
2024/01/19 08:15:28;;;;;;;2.97;2.23;;;;;;;;;;5091633;28;20196;-77
2024/01/19 08:17:55;;;;;;;2.57;2.37;;;;;;;;;;5090465;28;20200;-77
2024/01/19 08:20:24;;;;;;;2.63;1.80;;;;;;;;;;5091105;28;20677;-77
2024/01/19 08:22:52;;;;;;;1.57;1.43;;;;;;;;;;5090805;28;20196;-77
2024/01/19 08:25:21;;;;;;;3.67;1.77;;;;;;;;;;5091215;28;20285;-77
2024/01/19 08:27:48;;;;;;;3.90;1.90;;;;;;;;;;5090407;28;20293;-77
2024/01/19 08:30:16;;;;;;;24.90;10.00;;;;;;;;;;5090972;28;20686;-77
2024/01/19 08:32:43;;;;;;;2.33;1.90;;;;;;;;;;5090408;28;20233;-77
2024/01/19 08:35:10;;;;;;;3.73;3.10;;;;;;;;;;5090438;28;20670;-77
2024/01/19 08:37:37;;;;;;;9.33;7.97;;;;;;;;;;5090929;28;20639;-77
2024/01/19 08:40:05;;;;;;;2.60;1.57;;;;;;;;;;5090450;28;20729;-77
2024/01/19 08:42:33;;;;;;;15.03;10.37;;;;;;;;;;5091118;28;20640;-77
2024/01/19 08:45:00;;;;;;;3.87;2.50;;;;;;;;;;5090639;28;20210;-77
2024/01/19 08:47:27;;;;;;;2.57;1.60;;;;;;;;;;5090677;28;20212;-78
2024/01/19 08:49:54;;;;;;;1.57;1.47;;;;;;;;;;5091192;28;20211;-78
2024/01/19 08:52:20;;;;;;;2.40;1.30;;;;;;;;;;5091087;28;20208;-77
2024/01/19 08:54:47;;;;;;;1.47;1.37;;;;;;;;;;5090764;28;20215;-77
2024/01/19 08:57:14;;;;;;;1.40;1.30;;;;;;;;;;5091058;28;20517;-78
2024/01/19 08:59:42;;;;;;;1.43;1.13;;;;;;;;;;5090737;28;20251;-78
2024/01/19 09:02:09;;;;;;;1.70;1.60;;;;;;;;;;5091188;28;20265;-77
2024/01/19 09:04:36;;;;;;;1.30;1.20;;;;;;;;;;5090168;28;20200;-78
2024/01/19 09:07:04;;;;;;;1.57;1.00;;;;;;;;;;5090726;28;20200;-77
2024/01/19 09:09:30;;;;;;;1.10;1.10;;;;;;;;;;5090137;28;20701;-78
2024/01/19 09:11:57;;;;;;;1.97;1.20;;;;;;;;;;5090457;28;20201;-77
2024/01/19 09:14:26;;;;;;;1.47;1.30;;;;;;;;;;5090433;28;20192;-78
2024/01/19 09:16:54;;;;;;;1.67;1.30;;;;;;;;;;5090410;28;20202;-77
2024/01/19 09:19:21;;;;;;;2.50;1.40;;;;;;;;;;5090111;28;20711;-78
2024/01/19 09:21:50;;;;;;;1.13;1.03;;;;;;;;;;5090913;28;20213;-77
2024/01/19 09:24:17;;;;;;;2.70;1.17;;;;;;;;;;5090248;28;20668;-78
2024/01/19 09:26:44;;;;;;;2.13;1.70;;;;;;;;;;5090598;28;20202;-78
2024/01/19 09:29:11;;;;;;;2.10;2.00;;;;;;;;;;5090559;28;20230;-78
2024/01/19 09:31:42;;;;;;;1.40;1.07;;;;;;;;;;5090509;28;20222;-78
2024/01/19 09:34:10;;;;;;;1.37;1.20;;;;;;;;;;5090006;28;20198;-78
2024/01/19 09:36:37;;;;;;;1.33;1.20;;;;;;;;;;5090446;28;20215;-77
2024/01/19 09:39:04;;;;;;;1.60;1.40;;;;;;;;;;5090136;28;20234;-77
2024/01/19 09:41:35;;;;;;;4.23;1.63;;;;;;;;;;5090347;28;20222;-78
2024/01/19 09:44:03;;;;;;;1.87;1.20;;;;;;;;;;5089791;28;20202;-77
2024/01/19 09:46:30;;;;;;;3.43;2.93;;;;;;;;;;5093287;28;20207;-77
2024/01/19 09:49:14;;;;;;;2.93;2.17;;;;;;;;;;5093468;28;20214;-77
2024/01/19 09:51:47;;;;;;;8.93;8.03;;;;;;;;;;5093677;28;20200;-78
2024/01/19 09:54:20;;;;;;;4.47;4.03;;;;;;;;;;5094260;28;20241;-77
2024/01/19 09:56:47;;;;;;;7.13;4.67;;;;;;;;;;5093441;28;20209;-77
2024/01/19 09:59:14;;;;;;;5.87;4.13;;;;;;;;;;5093686;28;20714;-77
2024/01/19 10:01:41;;;;;;;5.53;4.60;;;;;;;;;;5093646;28;20202;-77
2024/01/19 10:04:14;;;;;;;7.37;6.67;;;;;;;;;;5093152;28;20624;-77
2024/01/19 10:06:43;;;;;;;4.10;3.70;;;;;;;;;;5093375;28;20206;-78
2024/01/19 10:09:11;;;;;;;6.67;3.90;;;;;;;;;;5093301;28;20213;-77
2024/01/19 10:11:38;;;;;;;9.40;3.47;;;;;;;;;;5093488;28;20209;-77
2024/01/19 10:14:05;;;;;;;4.57;2.87;;;;;;;;;;5093349;28;20205;-78
2024/01/19 10:16:34;;;;;;;2.47;2.27;;;;;;;;;;5093675;28;20284;-77
2024/01/19 10:19:04;;;;;;;3.40;2.33;;;;;;;;;;5093126;28;20316;-78
2024/01/19 10:21:33;;;;;;;4.87;2.07;;;;;;;;;;5080549;28;20283;-77
2024/01/19 10:24:19;;;;;;;3.03;2.10;;;;;;;;;;5092725;28;20200;-78
2024/01/19 10:26:46;;;;;;;3.80;2.77;;;;;;;;;;5093529;28;20242;-77
2024/01/19 10:29:14;;;;;;;2.13;1.97;;;;;;;;;;5092992;28;20586;-77
2024/01/19 10:31:42;;;;;;;2.07;1.93;;;;;;;;;;5093153;28;20214;-77
2024/01/19 10:34:17;;;;;;;2.70;2.50;;;;;;;;;;5092366;28;20688;-77
2024/01/19 10:36:45;;;;;;;3.77;2.27;;;;;;;;;;5093291;28;20664;-77
2024/01/19 10:39:20;;;;;;;5.90;2.20;;;;;;;;;;5092653;28;20239;-77
2024/01/19 10:41:47;;;;;;;2.80;1.67;;;;;;;;;;5092727;28;20451;-78
2024/01/19 10:44:16;;;;;;;4.60;2.10;;;;;;;;;;5092630;28;20204;-77
2024/01/19 10:46:43;;;;;;;2.30;2.00;;;;;;;;;;5093282;28;20203;-77
2024/01/19 10:49:11;;;;;;;2.13;1.87;;;;;;;;;;5092775;28;20200;-77
2024/01/19 10:51:38;;;;;;;2.23;1.70;;;;;;;;;;5092731;28;20564;-77
2024/01/19 10:54:07;;;;;;;3.73;1.87;;;;;;;;;;5092860;28;20565;-77
2024/01/19 10:56:34;;;;;;;3.43;2.03;;;;;;;;;;5092180;28;20635;-77
2024/01/19 10:59:10;;;;;;;3.73;1.87;;;;;;;;;;5091689;28;20228;-77
2024/01/19 11:01:38;;;;;;;4.57;2.40;;;;;;;;;;5092658;28;20199;-77
2024/01/19 11:04:08;;;;;;;2.10;1.90;;;;;;;;;;5092349;28;20657;-77
2024/01/19 11:06:36;;;;;;;2.67;2.43;;;;;;;;;;5092017;28;20729;-77
2024/01/19 11:09:03;;;;;;;3.27;1.83;;;;;;;;;;5092164;28;20678;-77
2024/01/19 11:11:34;;;;;;;4.20;2.83;;;;;;;;;;5092154;28;20713;-77
2024/01/19 11:14:02;;;;;;;6.60;1.70;;;;;;;;;;5092135;28;20591;-77
2024/01/19 11:16:29;;;;;;;3.43;2.23;;;;;;;;;;5092014;28;20200;-77
2024/01/19 11:18:56;;;;;;;3.57;2.07;;;;;;;;;;5091558;28;20681;-77
2024/01/19 11:21:24;;;;;;;2.73;2.20;;;;;;;;;;5091929;28;20200;-77
2024/01/19 11:23:51;;;;;;;5.27;3.13;;;;;;;;;;5091975;28;20253;-78
2024/01/19 11:26:21;;;;;;;7.37;4.00;;;;;;;;;;5092131;28;20216;-77
2024/01/19 11:28:54;;;;;;;8.50;6.10;;;;;;;;;;5091184;28;20708;-77
2024/01/19 11:31:23;;;;;;;7.10;5.10;;;;;;;;;;5092283;28;20633;-78
2024/01/19 11:33:52;;;;;;;4.10;3.43;;;;;;;;;;5091638;28;20295;-77
2024/01/19 11:36:47;;;;;;;5.63;5.10;;;;;;;;;;5091772;28;20759;-77
2024/01/19 11:39:43;;;;;;;8.20;5.63;;;;;;;;;;5084019;28;20224;-77
2024/01/19 11:42:12;;;;;;;7.50;6.40;;;;;;;;;;5091522;28;20629;-77
2024/01/19 11:44:45;;;;;;;39.47;35.20;;;;;;;;;;5091793;28;20284;-77
2024/01/19 11:47:39;;;;;;;20.43;18.57;;;;;;;;;;5090961;28;20592;-77
2024/01/19 11:50:07;;;;;;;14.77;13.23;;;;;;;;;;5073146;28;20199;-77
2024/01/19 11:52:41;;;;;;;14.30;13.00;;;;;;;;;;5091221;28;20204;-78
2024/01/19 11:55:37;;;;;;;8.90;8.10;;;;;;;;;;5091369;28;20195;-77
2024/01/19 11:58:27;;;;;;;5.90;5.30;;;;;;;;;;5091191;28;20205;-77
2024/01/19 12:00:59;;;;;;;5.63;4.87;;;;;;;;;;5091568;28;20604;-78
2024/01/19 12:03:26;;;;;;;9.43;6.60;;;;;;;;;;5091308;28;20204;-77
2024/01/19 12:05:59;;;;;;;5.00;4.50;;;;;;;;;;5091225;28;20686;-78
2024/01/19 12:08:27;;;;;;;4.37;3.80;;;;;;;;;;5090979;28;20238;-78
2024/01/19 12:11:04;;;;;;;4.63;3.87;;;;;;;;;;5091291;28;20207;-78
2024/01/19 12:13:32;;;;;;;4.83;4.43;;;;;;;;;;5079209;28;20200;-77
2024/01/19 12:16:01;;;;;;;5.97;5.47;;;;;;;;;;5090835;28;20295;-77
2024/01/19 12:18:28;;;;;;;6.00;5.43;;;;;;;;;;5090753;28;20204;-77
2024/01/19 12:20:55;;;;;;;6.87;4.57;;;;;;;;;;5090935;28;20230;-78
2024/01/19 12:23:22;;;;;;;7.57;4.97;;;;;;;;;;5091230;28;20200;-77
2024/01/19 12:25:54;;;;;;;4.80;4.30;;;;;;;;;;5091047;28;20683;-77
2024/01/19 12:28:21;;;;;;;6.07;5.43;;;;;;;;;;5090528;28;20224;-77
2024/01/19 12:30:48;;;;;;;5.03;4.53;;;;;;;;;;5091042;28;20577;-77
2024/01/19 12:33:18;;;;;;;5.97;4.07;;;;;;;;;;5090827;28;20255;-77
2024/01/19 12:35:46;;;;;;;6.33;4.20;;;;;;;;;;5090717;28;20204;-77
2024/01/19 12:38:14;;;;;;;5.83;4.17;;;;;;;;;;5090438;28;20206;-77
2024/01/19 12:40:42;;;;;;;5.00;4.50;;;;;;;;;;5090859;28;20224;-77
2024/01/19 12:43:09;;;;;;;7.53;4.60;;;;;;;;;;5090880;28;20200;-77
2024/01/19 12:45:36;;;;;;;4.83;4.33;;;;;;;;;;5090364;28;20250;-77
2024/01/19 12:48:03;;;;;;;7.63;5.07;;;;;;;;;;5091106;28;20208;-77
2024/01/19 12:50:32;;;;;;;6.03;4.93;;;;;;;;;;5090873;28;20613;-77
2024/01/19 12:52:59;;;;;;;14.43;10.33;;;;;;;;;;5090548;28;20207;-77
2024/01/19 12:55:30;;;;;;;7.87;6.37;;;;;;;;;;5090830;28;20203;-77
2024/01/19 12:57:57;;;;;;;12.50;11.30;;;;;;;;;;5090364;28;20677;-77
2024/01/19 13:00:25;;;;;;;10.37;9.47;;;;;;;;;;5090975;28;20231;-77
2024/01/19 13:02:55;;;;;;;11.93;10.77;;;;;;;;;;5090496;28;20204;-77
2024/01/19 13:05:22;;;;;;;22.43;18.70;;;;;;;;;;5091204;28;20200;-77
2024/01/19 13:07:51;;;;;;;9.77;8.50;;;;;;;;;;5090302;28;20199;-77
2024/01/19 13:10:19;;;;;;;17.27;15.67;;;;;;;;;;5090884;28;20197;-77
2024/01/19 13:12:46;;;;;;;5.67;5.17;;;;;;;;;;5090079;28;20718;-77
2024/01/19 13:15:14;;;;;;;7.97;7.17;;;;;;;;;;5090600;28;20212;-77
2024/01/19 13:17:42;;;;;;;6.87;5.87;;;;;;;;;;5090479;28;20208;-77
2024/01/19 13:20:11;;;;;;;10.07;9.03;;;;;;;;;;5090679;28;20231;-77
2024/01/19 13:22:38;;;;;;;10.57;9.43;;;;;;;;;;5094299;28;20189;-77
2024/01/19 13:25:08;;;;;;;10.10;7.47;;;;;;;;;;5094656;28;20211;-77
2024/01/19 13:27:35;;;;;;;8.73;7.93;;;;;;;;;;5094209;28;20208;-77
2024/01/19 13:30:03;;;;;;;6.87;6.27;;;;;;;;;;5094742;28;20709;-77
2024/01/19 13:32:30;;;;;;;8.50;6.47;;;;;;;;;;5093745;28;20265;-77
2024/01/19 13:34:56;;;;;;;14.27;6.37;;;;;;;;;;5094182;28;20201;-77
2024/01/19 13:37:23;;;;;;;5.83;5.33;;;;;;;;;;5094094;28;20200;-77
2024/01/19 13:39:52;;;;;;;5.37;4.83;;;;;;;;;;5093976;28;20215;-77
2024/01/19 13:42:21;;;;;;;5.07;4.57;;;;;;;;;;5093395;28;20197;-77
2024/01/19 13:44:48;;;;;;;5.57;5.07;;;;;;;;;;5094169;28;20637;-77
2024/01/19 13:47:15;;;;;;;7.50;5.17;;;;;;;;;;5094163;28;20204;-77
2024/01/19 13:49:41;;;;;;;7.77;6.53;;;;;;;;;;5093821;28;20204;-77
2024/01/19 13:52:10;;;;;;;6.00;5.50;;;;;;;;;;5093672;28;20208;-77
2024/01/19 13:54:37;;;;;;;5.67;4.83;;;;;;;;;;5093781;28;20200;-79
2024/01/19 13:57:04;;;;;;;6.87;5.67;;;;;;;;;;5080439;28;20200;-77
2024/01/19 13:59:32;;;;;;;8.80;7.67;;;;;;;;;;5093582;28;20222;-78
2024/01/19 14:02:02;;;;;;;7.07;6.33;;;;;;;;;;5093961;28;20212;-77
2024/01/19 14:04:30;;;;;;;9.43;7.77;;;;;;;;;;5106999;28;20207;-79
2024/01/19 14:06:57;;;;;;;18.87;16.87;;;;;;;;;;5094415;28;20625;-77
2024/01/19 14:09:25;;;;;;;13.10;11.93;;;;;;;;;;5093315;28;20243;-77
2024/01/19 14:11:52;;;;;;;8.67;7.23;;;;;;;;;;5093930;28;20203;-77
2024/01/19 14:14:19;;;;;;;21.97;18.33;;;;;;;;;;5092973;28;20643;-77
2024/01/19 14:16:48;;;;;;;59.90;34.40;;;;;;;;;;5093875;28;20203;-77
2024/01/19 14:19:15;;;;;;;36.57;27.20;;;;;;;;;;5093127;28;20678;-77
2024/01/19 14:21:42;;;;;;;42.23;29.53;;;;;;;;;;5092775;28;20233;-77
2024/01/19 14:24:09;;;;;;;34.97;26.80;;;;;;;;;;5092921;28;20203;-77
2024/01/19 14:26:36;;;;;;;37.97;29.83;;;;;;;;;;5093168;28;20206;-77
2024/01/19 14:29:03;;;;;;;31.20;25.77;;;;;;;;;;5092859;28;20285;-77
2024/01/19 14:31:29;;;;;;;75.17;59.87;;;;;;;;;;5092967;28;20591;-77
2024/01/19 14:33:58;;;;;;;27.30;21.80;;;;;;;;;;5092255;28;20200;-77
2024/01/19 14:36:25;;;;;;;29.10;26.70;;;;;;;;;;5092660;28;20622;-77
2024/01/19 14:38:51;;;;;;;28.23;21.97;;;;;;;;;;5093201;28;20212;-77
2024/01/19 14:41:18;;;;;;;25.70;22.67;;;;;;;;;;5092128;28;20223;-77
2024/01/19 14:43:45;;;;;;;55.80;49.90;;;;;;;;;;5092844;28;20203;-77
2024/01/19 14:46:13;;;;;;;66.13;51.53;;;;;;;;;;5092861;28;20209;-77